Back to Top

Language: 

My Weather Underground Personal Weather Station Historical Data with Graphs...

Delerius Weather Station Historical Data
Daily Summary for December 6, 2017 Units:  English    Metric   Both
« Previous Day
Next Day »
Daily Weekly Monthly Yearly Custom
  High: Low: Average:
Temperature: 52.0 °F 46.6 °F 49.8 °F
Dew Point: 47.3 °F 41.3 °F 43.7 °F
Humidity: 85 % 70 % 80 %
Wind Speed: 26.0 mph 2.0 mph 11.3 mph
Wind Gust: 38.0 mph - -
Wind:- - SW
Pressure: 30.37 in 29.77 in -
Precipitation: 0.00 in    
Historical Graphs
 
 
Tabular Data for December 6, 2017
Time Temperature Dew Point Pressure Wind Wind Speed Wind Gust Humidity Rainfall Rate (Hourly) solar Conditions
00:03 46.6 °F 41.7 °F 30.37 in WSW 9.0 mph 13.0 mph 83 % 0.00 in 0 W/m2
00:08 46.8 °F 41.9 °F 30.37 in WSW 6.0 mph 9.0 mph 83 % 0.00 in 0 W/m2
00:13 46.8 °F 41.9 °F 30.37 in WSW 3.0 mph 6.0 mph 83 % 0.00 in 0 W/m2
00:18 46.8 °F 41.9 °F 30.36 in SW 2.0 mph 5.0 mph 83 % 0.00 in 0 W/m2
00:23 46.6 °F 41.7 °F 30.36 in SW 3.0 mph 7.0 mph 83 % 0.00 in 0 W/m2
00:28 46.8 °F 41.9 °F 30.36 in SW 5.0 mph 8.0 mph 83 % 0.00 in 0 W/m2
00:33 46.8 °F 41.9 °F 30.36 in WSW 8.0 mph 12.0 mph 83 % 0.00 in 0 W/m2
00:38 46.9 °F 42.0 °F 30.36 in WSW 4.0 mph 6.0 mph 83 % 0.00 in 0 W/m2
00:43 46.9 °F 42.0 °F 30.36 in WSW 8.0 mph 14.0 mph 83 % 0.00 in 0 W/m2
00:48 47.1 °F 42.2 °F 30.35 in WSW 12.0 mph 18.0 mph 83 % 0.00 in 0 W/m2
00:53 47.5 °F 42.6 °F 30.35 in WSW 9.0 mph 18.0 mph 83 % 0.00 in 0 W/m2
00:58 47.5 °F 42.6 °F 30.35 in WSW 8.0 mph 13.0 mph 83 % 0.00 in 0 W/m2
01:03 47.5 °F 42.6 °F 30.35 in WSW 9.0 mph 13.0 mph 83 % 0.00 in 0 W/m2
01:08 47.7 °F 42.4 °F 30.35 in WSW 9.0 mph 13.0 mph 82 % 0.00 in 0 W/m2
01:13 47.7 °F 42.4 °F 30.34 in West 7.0 mph 12.0 mph 82 % 0.00 in 0 W/m2
01:18 47.7 °F 42.4 °F 30.34 in West 5.0 mph 10.0 mph 82 % 0.00 in 0 W/m2
01:23 47.7 °F 42.4 °F 30.34 in West 7.0 mph 9.0 mph 82 % 0.00 in 0 W/m2
01:28 47.7 °F 42.4 °F 30.34 in WSW 7.0 mph 10.0 mph 82 % 0.00 in 0 W/m2
01:33 47.7 °F 42.4 °F 30.34 in West 8.0 mph 14.0 mph 82 % 0.00 in 0 W/m2
01:38 47.7 °F 42.4 °F 30.34 in West 7.0 mph 10.0 mph 82 % 0.00 in 0 W/m2
01:43 47.7 °F 42.4 °F 30.34 in West 8.0 mph 13.0 mph 82 % 0.00 in 0 W/m2
01:48 47.5 °F 42.3 °F 30.33 in West 9.0 mph 13.0 mph 82 % 0.00 in 0 W/m2
01:53 47.5 °F 42.3 °F 30.33 in West 7.0 mph 11.0 mph 82 % 0.00 in 0 W/m2
01:58 47.3 °F 42.1 °F 30.34 in West 6.0 mph 8.0 mph 82 % 0.00 in 0 W/m2
02:03 47.1 °F 41.9 °F 30.33 in West 6.0 mph 10.0 mph 82 % 0.00 in 0 W/m2
02:08 46.9 °F 42.0 °F 30.33 in West 5.0 mph 8.0 mph 83 % 0.00 in 0 W/m2
02:13 46.9 °F 42.4 °F 30.33 in WSW 5.0 mph 9.0 mph 84 % 0.00 in 0 W/m2
02:19 46.9 °F 42.4 °F 30.33 in WSW 7.0 mph 9.0 mph 84 % 0.00 in 0 W/m2
02:24 46.9 °F 42.4 °F 30.33 in WSW 6.0 mph 9.0 mph 84 % 0.00 in 0 W/m2
02:29 47.1 °F 42.5 °F 30.33 in WSW 10.0 mph 16.0 mph 84 % 0.00 in 0 W/m2
02:34 47.5 °F 42.6 °F 30.33 in WSW 11.0 mph 20.0 mph 83 % 0.00 in 0 W/m2
02:39 47.7 °F 42.8 °F 30.33 in West 11.0 mph 15.0 mph 83 % 0.00 in 0 W/m2
02:44 47.8 °F 42.9 °F 30.33 in West 8.0 mph 12.0 mph 83 % 0.00 in 0 W/m2
02:49 47.8 °F 42.6 °F 30.33 in WSW 7.0 mph 12.0 mph 82 % 0.00 in 0 W/m2
02:54 47.8 °F 42.6 °F 30.33 in West 7.0 mph 12.0 mph 82 % 0.00 in 0 W/m2
02:59 47.8 °F 42.6 °F 30.32 in West 12.0 mph 19.0 mph 82 % 0.00 in 0 W/m2
03:04 48.0 °F 42.8 °F 30.32 in West 11.0 mph 18.0 mph 82 % 0.00 in 0 W/m2
03:09 48.0 °F 42.5 °F 30.32 in West 9.0 mph 14.0 mph 81 % 0.00 in 0 W/m2
03:14 47.8 °F 42.3 °F 30.32 in West 11.0 mph 16.0 mph 81 % 0.00 in 0 W/m2
03:15 48.0 °F 42.5 °F 30.32 in West 11.0 mph 16.0 mph 81 % 0.00 in 0 W/m2
03:20 48.0 °F 42.5 °F 30.32 in West 10.0 mph 18.0 mph 81 % 0.00 in 0 W/m2
03:25 48.0 °F 42.5 °F 30.32 in West 10.0 mph 18.0 mph 81 % 0.00 in 0 W/m2
03:30 48.2 °F 42.6 °F 30.32 in West 9.0 mph 16.0 mph 81 % 0.00 in 0 W/m2
03:35 48.4 °F 42.5 °F 30.32 in West 10.0 mph 15.0 mph 80 % 0.00 in 0 W/m2
03:40 48.4 °F 42.5 °F 30.32 in WNW 12.0 mph 21.0 mph 80 % 0.00 in 0 W/m2
03:45 48.4 °F 42.5 °F 30.31 in WSW 9.0 mph 15.0 mph 80 % 0.00 in 0 W/m2
03:55 48.4 °F 42.5 °F 30.31 in West 9.0 mph 15.0 mph 80 % 0.00 in 0 W/m2
04:00 48.4 °F 42.5 °F 30.31 in West 8.0 mph 14.0 mph 80 % 0.00 in 0 W/m2
04:05 48.4 °F 42.5 °F 30.31 in West 8.0 mph 15.0 mph 80 % 0.00 in 0 W/m2
04:10 48.4 °F 42.5 °F 30.30 in West 12.0 mph 20.0 mph 80 % 0.00 in 0 W/m2
04:15 48.4 °F 42.2 °F 30.31 in West 8.0 mph 11.0 mph 79 % 0.00 in 0 W/m2
04:20 48.4 °F 42.2 °F 30.31 in West 7.0 mph 13.0 mph 79 % 0.00 in 0 W/m2
04:25 48.4 °F 42.2 °F 30.30 in West 9.0 mph 14.0 mph 79 % 0.00 in 0 W/m2
04:30 48.4 °F 42.2 °F 30.30 in WSW 7.0 mph 14.0 mph 79 % 0.00 in 0 W/m2
04:31 48.4 °F 42.2 °F 30.30 in WSW 8.0 mph 14.0 mph 79 % 0.00 in 0 W/m2
04:36 48.6 °F 42.0 °F 30.30 in WSW 10.0 mph 14.0 mph 78 % 0.00 in 0 W/m2
04:41 48.7 °F 42.2 °F 30.29 in West 10.0 mph 16.0 mph 78 % 0.00 in 0 W/m2
04:46 48.7 °F 41.8 °F 30.29 in WSW 10.0 mph 13.0 mph 77 % 0.00 in 0 W/m2
04:51 48.7 °F 41.8 °F 30.29 in WSW 9.0 mph 20.0 mph 77 % 0.00 in 0 W/m2
04:56 48.7 °F 41.8 °F 30.29 in West 8.0 mph 12.0 mph 77 % 0.00 in 0 W/m2
05:01 48.7 °F 41.8 °F 30.28 in WSW 6.0 mph 13.0 mph 77 % 0.00 in 0 W/m2
05:06 48.6 °F 41.7 °F 30.28 in WSW 5.0 mph 9.0 mph 77 % 0.00 in 0 W/m2
05:11 48.4 °F 41.5 °F 30.28 in WSW 5.0 mph 6.0 mph 77 % 0.00 in 0 W/m2
05:16 48.4 °F 41.5 °F 30.28 in WSW 4.0 mph 7.0 mph 77 % 0.00 in 0 W/m2
05:21 48.2 °F 41.3 °F 30.28 in WSW 6.0 mph 11.0 mph 77 % 0.00 in 0 W/m2
05:26 48.4 °F 41.8 °F 30.27 in WSW 10.0 mph 14.0 mph 78 % 0.00 in 0 W/m2
05:31 48.7 °F 42.2 °F 30.27 in WSW 10.0 mph 19.0 mph 78 % 0.00 in 0 W/m2
05:36 48.9 °F 42.4 °F 30.27 in West 13.0 mph 20.0 mph 78 % 0.00 in 0 W/m2
05:41 49.3 °F 42.7 °F 30.27 in WSW 14.0 mph 19.0 mph 78 % 0.00 in 0 W/m2
05:46 49.3 °F 42.7 °F 30.27 in WSW 11.0 mph 16.0 mph 78 % 0.00 in 0 W/m2
05:51 49.3 °F 42.7 °F 30.27 in WSW 8.0 mph 15.0 mph 78 % 0.00 in 0 W/m2
05:56 49.3 °F 42.7 °F 30.27 in WSW 9.0 mph 14.0 mph 78 % 0.00 in 0 W/m2
06:01 48.9 °F 42.7 °F 30.27 in WSW 11.0 mph 18.0 mph 79 % 0.00 in 0 W/m2
06:06 48.9 °F 43.0 °F 30.27 in WSW 11.0 mph 20.0 mph 80 % 0.00 in 0 W/m2
06:11 48.6 °F 42.7 °F 30.27 in WSW 9.0 mph 16.0 mph 80 % 0.00 in 0 W/m2
06:16 48.4 °F 42.8 °F 30.26 in WSW 8.0 mph 13.0 mph 81 % 0.00 in 0 W/m2
06:21 48.4 °F 42.8 °F 30.26 in SW 8.0 mph 13.0 mph 81 % 0.00 in 0 W/m2
06:26 48.2 °F 42.6 °F 30.26 in WSW 8.0 mph 12.0 mph 81 % 0.00 in 0 W/m2
06:31 48.2 °F 42.6 °F 30.25 in WSW 9.0 mph 14.0 mph 81 % 0.00 in 0 W/m2
06:36 48.4 °F 42.8 °F 30.25 in WSW 10.0 mph 15.0 mph 81 % 0.00 in 0 W/m2
06:41 48.4 °F 42.5 °F 30.25 in WSW 9.0 mph 13.0 mph 80 % 0.00 in 0 W/m2
06:46 48.4 °F 42.5 °F 30.25 in WSW 8.0 mph 12.0 mph 80 % 0.00 in 0 W/m2
06:51 48.4 °F 42.5 °F 30.25 in WSW 11.0 mph 18.0 mph 80 % 0.00 in 0 W/m2
06:56 48.7 °F 42.8 °F 30.25 in WSW 9.0 mph 19.0 mph 80 % 0.00 in 0 W/m2
07:01 48.7 °F 42.5 °F 30.25 in WSW 9.0 mph 15.0 mph 79 % 0.00 in 0 W/m2
07:06 48.9 °F 42.7 °F 30.25 in WSW 11.0 mph 20.0 mph 79 % 0.00 in 0 W/m2
07:11 49.1 °F 42.9 °F 30.24 in WSW 11.0 mph 16.0 mph 79 % 0.00 in 0 W/m2
07:16 49.1 °F 42.9 °F 30.24 in West 12.0 mph 18.0 mph 79 % 0.00 in 0 W/m2
07:21 49.1 °F 42.9 °F 30.24 in WSW 9.0 mph 13.0 mph 79 % 0.00 in 0 W/m2
07:26 49.1 °F 42.9 °F 30.24 in WSW 11.0 mph 16.0 mph 79 % 0.00 in 0 W/m2
07:31 49.3 °F 42.7 °F 30.24 in WSW 10.0 mph 15.0 mph 78 % 0.00 in 0 W/m2
07:37 49.3 °F 42.4 °F 30.23 in WSW 10.0 mph 15.0 mph 77 % 0.00 in 0 W/m2
07:42 49.5 °F 42.2 °F 30.23 in WSW 10.0 mph 18.0 mph 76 % 0.00 in 0 W/m2
07:47 49.6 °F 42.0 °F 30.23 in WSW 13.0 mph 20.0 mph 75 % 0.00 in 0 W/m2
07:52 49.8 °F 42.2 °F 30.24 in SW 10.0 mph 14.0 mph 75 % 0.00 in 5 W/m2
07:57 50.0 °F 42.0 °F 30.24 in WSW 13.0 mph 24.0 mph 74 % 0.00 in 5 W/m2
08:02 50.2 °F 41.9 °F 30.24 in WSW 14.0 mph 28.0 mph 73 % 0.00 in 5 W/m2
08:07 50.4 °F 42.4 °F 30.24 in SW 15.0 mph 24.0 mph 74 % 0.00 in 5 W/m2
08:12 50.2 °F 42.2 °F 30.24 in SW 14.0 mph 21.0 mph 74 % 0.00 in 9 W/m2
08:17 50.2 °F 42.2 °F 30.23 in SW 15.0 mph 23.0 mph 74 % 0.00 in 14 W/m2
08:22 50.2 °F 42.6 °F 30.23 in WSW 13.0 mph 21.0 mph 75 % 0.00 in 18 W/m2
08:27 50.2 °F 42.2 °F 30.23 in WSW 15.0 mph 23.0 mph 74 % 0.00 in 25 W/m2
08:32 50.4 °F 42.4 °F 30.23 in WSW 12.0 mph 16.0 mph 74 % 0.00 in 30 W/m2
08:37 50.4 °F 42.4 °F 30.22 in SW 12.0 mph 16.0 mph 74 % 0.00 in 30 W/m2
08:42 50.4 °F 42.4 °F 30.22 in SW 9.0 mph 15.0 mph 74 % 0.00 in 32 W/m2
08:47 50.4 °F 42.4 °F 30.22 in SW 10.0 mph 14.0 mph 74 % 0.00 in 35 W/m2
08:52 50.2 °F 42.2 °F 30.23 in WSW 9.0 mph 18.0 mph 74 % 0.00 in 51 W/m2
08:57 50.4 °F 42.4 °F 30.22 in SW 9.0 mph 12.0 mph 74 % 0.00 in 58 W/m2
09:02 50.5 °F 42.6 °F 30.22 in SW 10.0 mph 14.0 mph 74 % 0.00 in 47 W/m2
09:07 50.7 °F 42.4 °F 30.22 in SW 6.0 mph 13.0 mph 73 % 0.00 in 35 W/m2
09:12 50.7 °F 42.4 °F 30.22 in WSW 8.0 mph 13.0 mph 73 % 0.00 in 35 W/m2
09:17 51.1 °F 42.4 °F 30.22 in SW 11.0 mph 21.0 mph 72 % 0.00 in 84 W/m2
09:22 51.3 °F 42.2 °F 30.22 in SW 10.0 mph 21.0 mph 71 % 0.00 in 113 W/m2
09:27 51.4 °F 42.3 °F 30.22 in WSW 7.0 mph 14.0 mph 71 % 0.00 in 123 W/m2
09:32 51.4 °F 42.0 °F 30.22 in SW 8.0 mph 12.0 mph 70 % 0.00 in 37 W/m2
09:37 51.4 °F 42.3 °F 30.21 in SW 8.0 mph 12.0 mph 71 % 0.00 in 39 W/m2
09:42 51.4 °F 42.3 °F 30.21 in SSW 10.0 mph 16.0 mph 71 % 0.00 in 39 W/m2
09:47 51.1 °F 42.4 °F 30.22 in SW 9.0 mph 13.0 mph 72 % 0.00 in 44 W/m2
09:52 51.1 °F 42.7 °F 30.22 in SW 9.0 mph 15.0 mph 73 % 0.00 in 49 W/m2
09:57 50.9 °F 42.9 °F 30.21 in SW 8.0 mph 13.0 mph 74 % 0.00 in 56 W/m2
10:02 50.7 °F 43.1 °F 30.22 in SW 8.0 mph 13.0 mph 75 % 0.00 in 49 W/m2
10:07 50.7 °F 43.1 °F 30.21 in SW 8.0 mph 10.0 mph 75 % 0.00 in 44 W/m2
10:12 50.5 °F 43.3 °F 30.21 in SW 7.0 mph 10.0 mph 76 % 0.00 in 35 W/m2
10:17 50.5 °F 43.6 °F 30.21 in SSW 7.0 mph 10.0 mph 77 % 0.00 in 32 W/m2
10:22 50.5 °F 43.6 °F 30.21 in SW 8.0 mph 15.0 mph 77 % 0.00 in 42 W/m2
10:27 50.5 °F 43.9 °F 30.21 in SW 9.0 mph 16.0 mph 78 % 0.00 in 33 W/m2
10:32 50.5 °F 43.9 °F 30.21 in SW 5.0 mph 8.0 mph 78 % 0.00 in 32 W/m2
10:37 50.5 °F 43.9 °F 30.21 in SW 3.0 mph 6.0 mph 78 % 0.00 in 37 W/m2
10:42 50.5 °F 43.9 °F 30.21 in WSW 6.0 mph 9.0 mph 78 % 0.00 in 33 W/m2
10:47 50.5 °F 43.9 °F 30.20 in SW 7.0 mph 12.0 mph 78 % 0.00 in 33 W/m2
10:52 50.7 °F 44.1 °F 30.20 in SSW 10.0 mph 14.0 mph 78 % 0.00 in 49 W/m2
10:57 50.7 °F 44.4 °F 30.20 in SSW 7.0 mph 11.0 mph 79 % 0.00 in 72 W/m2
11:03 50.7 °F 44.4 °F 30.20 in SW 6.0 mph 10.0 mph 79 % 0.00 in 77 W/m2
11:08 50.7 °F 44.1 °F 30.19 in SSW 7.0 mph 10.0 mph 78 % 0.00 in 86 W/m2
11:13 50.9 °F 44.3 °F 30.19 in SSW 8.0 mph 13.0 mph 78 % 0.00 in 74 W/m2
11:18 50.9 °F 44.3 °F 30.19 in SSW 7.0 mph 10.0 mph 78 % 0.00 in 88 W/m2
11:23 51.1 °F 44.5 °F 30.19 in SSW 9.0 mph 16.0 mph 78 % 0.00 in 91 W/m2
11:28 51.1 °F 44.1 °F 30.18 in SSW 8.0 mph 12.0 mph 77 % 0.00 in 83 W/m2
11:33 51.1 °F 44.1 °F 30.18 in SSW 8.0 mph 12.0 mph 77 % 0.00 in 72 W/m2
11:38 51.1 °F 44.1 °F 30.18 in South 7.0 mph 13.0 mph 77 % 0.00 in 83 W/m2
11:43 51.1 °F 43.8 °F 30.17 in SSW 6.0 mph 12.0 mph 76 % 0.00 in 65 W/m2
11:48 51.1 °F 43.4 °F 30.17 in SSW 8.0 mph 15.0 mph 75 % 0.00 in 63 W/m2
11:53 51.3 °F 43.6 °F 30.16 in SW 8.0 mph 14.0 mph 75 % 0.00 in 62 W/m2
11:58 51.3 °F 43.3 °F 30.16 in SW 8.0 mph 12.0 mph 74 % 0.00 in 67 W/m2
12:03 51.3 °F 43.3 °F 30.16 in SW 8.0 mph 13.0 mph 74 % 0.00 in 88 W/m2
12:07 51.4 °F 43.4 °F 30.16 in SW 8.0 mph 12.0 mph 74 % 0.00 in 83 W/m2
12:12 51.4 °F 43.1 °F 30.16 in SSW 11.0 mph 16.0 mph 73 % 0.00 in 93 W/m2
12:17 51.6 °F 43.6 °F 30.16 in SSW 7.0 mph 11.0 mph 74 % 0.00 in 142 W/m2
12:22 51.6 °F 43.6 °F 30.15 in SW 7.0 mph 11.0 mph 74 % 0.00 in 104 W/m2
12:27 51.6 °F 43.6 °F 30.15 in SW 6.0 mph 10.0 mph 74 % 0.00 in 98 W/m2
12:32 51.6 °F 44.0 °F 30.15 in SSW 10.0 mph 14.0 mph 75 % 0.00 in 91 W/m2
12:37 51.4 °F 44.1 °F 30.15 in SSW 10.0 mph 14.0 mph 76 % 0.00 in 77 W/m2
12:42 51.3 °F 44.0 °F 30.14 in SSW 9.0 mph 24.0 mph 76 % 0.00 in 79 W/m2
12:47 51.3 °F 44.0 °F 30.14 in SW 8.0 mph 15.0 mph 76 % 0.00 in 69 W/m2
12:52 51.3 °F 44.0 °F 30.14 in SW 10.0 mph 15.0 mph 76 % 0.00 in 76 W/m2
12:57 51.3 °F 44.3 °F 30.13 in SSW 7.0 mph 11.0 mph 77 % 0.00 in 86 W/m2
13:02 51.3 °F 44.3 °F 30.13 in SW 10.0 mph 16.0 mph 77 % 0.00 in 69 W/m2
13:07 51.3 °F 44.3 °F 30.13 in SW 9.0 mph 12.0 mph 77 % 0.00 in 67 W/m2
13:12 51.4 °F 44.5 °F 30.13 in SSW 11.0 mph 19.0 mph 77 % 0.00 in 104 W/m2
13:17 51.4 °F 44.5 °F 30.12 in SW 12.0 mph 18.0 mph 77 % 0.00 in 88 W/m2
13:22 51.4 °F 44.5 °F 30.12 in SSW 10.0 mph 15.0 mph 77 % 0.00 in 109 W/m2
13:27 51.6 °F 44.6 °F 30.11 in SSW 8.0 mph 18.0 mph 77 % 0.00 in 86 W/m2
13:33 51.4 °F 44.5 °F 30.11 in SSW 13.0 mph 19.0 mph 77 % 0.00 in 81 W/m2
13:38 51.4 °F 44.5 °F 30.11 in SSW 12.0 mph 20.0 mph 77 % 0.00 in 79 W/m2
13:43 51.3 °F 44.3 °F 30.10 in SSW 12.0 mph 19.0 mph 77 % 0.00 in 79 W/m2
13:48 51.3 °F 44.3 °F 30.10 in SSW 10.0 mph 14.0 mph 77 % 0.00 in 67 W/m2
13:53 51.1 °F 44.1 °F 30.10 in SW 14.0 mph 22.0 mph 77 % 0.00 in 63 W/m2
14:03 51.1 °F 44.1 °F 30.09 in SW 12.0 mph 20.0 mph 77 % 0.00 in 67 W/m2
14:08 51.1 °F 44.1 °F 30.09 in SW 13.0 mph 23.0 mph 77 % 0.00 in 63 W/m2
14:13 50.9 °F 43.9 °F 30.08 in SW 11.0 mph 16.0 mph 77 % 0.00 in 56 W/m2
14:18 50.9 °F 43.9 °F 30.08 in SW 14.0 mph 21.0 mph 77 % 0.00 in 53 W/m2
14:23 50.9 °F 43.9 °F 30.08 in SW 11.0 mph 16.0 mph 77 % 0.00 in 49 W/m2
14:28 50.7 °F 43.8 °F 30.08 in SW 12.0 mph 20.0 mph 77 % 0.00 in 47 W/m2
14:33 50.7 °F 44.1 °F 30.07 in SW 14.0 mph 22.0 mph 78 % 0.00 in 44 W/m2
14:38 50.5 °F 43.9 °F 30.07 in SW 13.0 mph 24.0 mph 78 % 0.00 in 42 W/m2
14:43 50.5 °F 43.9 °F 30.07 in SW 10.0 mph 15.0 mph 78 % 0.00 in 46 W/m2
14:48 50.5 °F 43.9 °F 30.06 in SW 10.0 mph 15.0 mph 78 % 0.00 in 40 W/m2
14:53 50.7 °F 44.1 °F 30.06 in SSW 13.0 mph 20.0 mph 78 % 0.00 in 33 W/m2
14:58 50.7 °F 43.8 °F 30.06 in SW 14.0 mph 27.0 mph 77 % 0.00 in 30 W/m2
15:03 50.7 °F 43.8 °F 30.05 in SW 8.0 mph 15.0 mph 77 % 0.00 in 23 W/m2
15:08 50.7 °F 43.8 °F 30.05 in WSW 10.0 mph 16.0 mph 77 % 0.00 in 18 W/m2
15:14 50.7 °F 44.1 °F 30.05 in SW 16.0 mph 24.0 mph 78 % 0.00 in 14 W/m2
15:19 50.7 °F 43.8 °F 30.05 in WSW 11.0 mph 18.0 mph 77 % 0.00 in 11 W/m2
15:24 50.9 °F 43.9 °F 30.05 in SW 18.0 mph 28.0 mph 77 % 0.00 in 9 W/m2
15:29 51.1 °F 44.1 °F 30.05 in SW 12.0 mph 16.0 mph 77 % 0.00 in 7 W/m2
15:34 51.1 °F 44.1 °F 30.05 in SSW 12.0 mph 20.0 mph 77 % 0.00 in 5 W/m2
15:39 51.1 °F 44.1 °F 30.05 in SW 11.0 mph 15.0 mph 77 % 0.00 in 0 W/m2
15:44 50.9 °F 43.9 °F 30.04 in SW 9.0 mph 16.0 mph 77 % 0.00 in 0 W/m2
15:49 50.9 °F 43.9 °F 30.05 in SW 8.0 mph 16.0 mph 77 % 0.00 in 0 W/m2
15:54 50.7 °F 43.8 °F 30.04 in SW 10.0 mph 15.0 mph 77 % 0.00 in 0 W/m2
15:59 50.7 °F 44.1 °F 30.04 in SW 10.0 mph 16.0 mph 78 % 0.00 in 0 W/m2
16:04 50.7 °F 44.1 °F 30.04 in SW 9.0 mph 19.0 mph 78 % 0.00 in 0 W/m2
16:09 50.5 °F 43.9 °F 30.04 in SSW 10.0 mph 18.0 mph 78 % 0.00 in 0 W/m2
16:13 50.5 °F 43.9 °F 30.04 in SSW 13.0 mph 21.0 mph 78 % 0.00 in 0 W/m2
16:18 50.5 °F 43.9 °F 30.04 in SW 11.0 mph 21.0 mph 78 % 0.00 in 0 W/m2
16:23 50.5 °F 43.9 °F 30.03 in SSW 13.0 mph 21.0 mph 78 % 0.00 in 0 W/m2
16:28 50.5 °F 44.3 °F 30.02 in SSW 10.0 mph 18.0 mph 79 % 0.00 in 0 W/m2
16:33 50.4 °F 44.1 °F 30.02 in SSW 9.0 mph 18.0 mph 79 % 0.00 in 0 W/m2
16:38 50.2 °F 43.9 °F 30.01 in SSW 9.0 mph 15.0 mph 79 % 0.00 in 0 W/m2
16:43 50.2 °F 44.2 °F 30.02 in SSW 13.0 mph 21.0 mph 80 % 0.00 in 0 W/m2
16:48 50.0 °F 44.1 °F 30.01 in SSW 10.0 mph 20.0 mph 80 % 0.00 in 0 W/m2
16:53 49.8 °F 43.9 °F 30.01 in SW 11.0 mph 16.0 mph 80 % 0.00 in 0 W/m2
16:58 49.8 °F 43.9 °F 30.01 in SW 8.0 mph 16.0 mph 80 % 0.00 in 0 W/m2
17:03 49.8 °F 44.2 °F 30.01 in SSW 8.0 mph 15.0 mph 81 % 0.00 in 0 W/m2
17:08 49.8 °F 44.2 °F 30.00 in SSW 6.0 mph 10.0 mph 81 % 0.00 in 0 W/m2
17:13 49.6 °F 44.0 °F 30.00 in SSW 10.0 mph 14.0 mph 81 % 0.00 in 0 W/m2
17:18 49.6 °F 44.0 °F 30.00 in SSW 9.0 mph 18.0 mph 81 % 0.00 in 0 W/m2
17:23 49.6 °F 44.0 °F 29.99 in SSW 9.0 mph 15.0 mph 81 % 0.00 in 0 W/m2
17:28 49.6 °F 44.0 °F 29.99 in South 7.0 mph 14.0 mph 81 % 0.00 in 0 W/m2
17:33 49.5 °F 44.2 °F 29.99 in SSW 8.0 mph 15.0 mph 82 % 0.00 in 0 W/m2
17:38 49.5 °F 44.2 °F 29.98 in SSW 9.0 mph 18.0 mph 82 % 0.00 in 0 W/m2
17:43 49.5 °F 44.2 °F 29.98 in SW 9.0 mph 14.0 mph 82 % 0.00 in 0 W/m2
17:48 49.5 °F 44.2 °F 29.98 in SW 12.0 mph 20.0 mph 82 % 0.00 in 0 W/m2
17:53 49.6 °F 44.4 °F 29.97 in SSW 8.0 mph 12.0 mph 82 % 0.00 in 0 W/m2
17:59 49.5 °F 44.2 °F 29.97 in SSW 8.0 mph 16.0 mph 82 % 0.00 in 0 W/m2
18:04 49.5 °F 44.2 °F 29.97 in SSW 10.0 mph 18.0 mph 82 % 0.00 in 0 W/m2
18:09 49.5 °F 44.2 °F 29.97 in SSW 9.0 mph 12.0 mph 82 % 0.00 in 0 W/m2
18:14 49.5 °F 44.2 °F 29.97 in SSW 10.0 mph 16.0 mph 82 % 0.00 in 0 W/m2
18:19 49.5 °F 44.2 °F 29.96 in SSW 6.0 mph 12.0 mph 82 % 0.00 in 0 W/m2
18:24 49.3 °F 44.3 °F 29.95 in SSW 13.0 mph 25.0 mph 83 % 0.00 in 0 W/m2
18:29 49.3 °F 44.3 °F 29.95 in SW 10.0 mph 14.0 mph 83 % 0.00 in 0 W/m2
18:34 49.5 °F 44.5 °F 29.95 in SSW 7.0 mph 12.0 mph 83 % 0.00 in 0 W/m2
18:39 49.5 °F 44.5 °F 29.95 in SSW 13.0 mph 23.0 mph 83 % 0.00 in 0 W/m2
18:44 49.5 °F 44.5 °F 29.94 in SSW 12.0 mph 23.0 mph 83 % 0.00 in 0 W/m2
18:49 49.6 °F 44.4 °F 29.93 in SSW 12.0 mph 24.0 mph 82 % 0.00 in 0 W/m2
18:54 49.6 °F 44.4 °F 29.93 in SW 13.0 mph 23.0 mph 82 % 0.00 in 0 W/m2
18:59 49.8 °F 44.5 °F 29.92 in SW 15.0 mph 32.0 mph 82 % 0.00 in 0 W/m2
19:04 49.8 °F 44.5 °F 29.92 in SW 16.0 mph 27.0 mph 82 % 0.00 in 0 W/m2
19:09 50.0 °F 44.7 °F 29.92 in SW 15.0 mph 26.0 mph 82 % 0.00 in 0 W/m2
19:14 49.8 °F 44.5 °F 29.91 in SW 11.0 mph 19.0 mph 82 % 0.00 in 0 W/m2
19:19 49.8 °F 44.5 °F 29.91 in SW 16.0 mph 28.0 mph 82 % 0.00 in 0 W/m2
19:24 49.8 °F 44.5 °F 29.91 in SW 18.0 mph 35.0 mph 82 % 0.00 in 0 W/m2
19:29 50.0 °F 44.7 °F 29.91 in SW 19.0 mph 30.0 mph 82 % 0.00 in 0 W/m2
19:34 50.0 °F 45.0 °F 29.91 in SW 21.0 mph 32.0 mph 83 % 0.00 in 0 W/m2
19:39 50.2 °F 44.9 °F 29.91 in SW 22.0 mph 30.0 mph 82 % 0.00 in 0 W/m2
19:44 50.2 °F 44.9 °F 29.90 in SW 21.0 mph 31.0 mph 82 % 0.00 in 0 W/m2
19:49 50.2 °F 44.9 °F 29.90 in SW 22.0 mph 33.0 mph 82 % 0.00 in 0 W/m2
19:54 50.4 °F 45.1 °F 29.90 in SW 23.0 mph 32.0 mph 82 % 0.00 in 0 W/m2
19:59 50.4 °F 45.4 °F 29.89 in SW 25.0 mph 38.0 mph 83 % 0.00 in 0 W/m2
20:04 50.4 °F 45.4 °F 29.89 in SW 20.0 mph 30.0 mph 83 % 0.00 in 0 W/m2
20:09 50.4 °F 45.4 °F 29.89 in SW 21.0 mph 30.0 mph 83 % 0.00 in 0 W/m2
20:14 50.4 °F 45.4 °F 29.89 in SW 22.0 mph 35.0 mph 83 % 0.00 in 0 W/m2
20:19 50.4 °F 45.4 °F 29.89 in SW 26.0 mph 37.0 mph 83 % 0.00 in 0 W/m2
20:24 50.4 °F 45.4 °F 29.89 in SW 26.0 mph 35.0 mph 83 % 0.00 in 0 W/m2
20:29 50.5 °F 45.6 °F 29.89 in SW 24.0 mph 33.0 mph 83 % 0.00 in 0 W/m2
20:34 50.4 °F 45.4 °F 29.89 in SW 21.0 mph 31.0 mph 83 % 0.00 in 0 W/m2
20:39 50.4 °F 45.7 °F 29.89 in SW 22.0 mph 33.0 mph 84 % 0.00 in 0 W/m2
20:44 50.4 °F 45.7 °F 29.89 in SW 18.0 mph 28.0 mph 84 % 0.00 in 0 W/m2
20:49 50.4 °F 45.7 °F 29.88 in SW 21.0 mph 29.0 mph 84 % 0.00 in 0 W/m2
20:54 50.4 °F 45.7 °F 29.88 in SW 16.0 mph 27.0 mph 84 % 0.00 in 0 W/m2
21:00 50.4 °F 45.7 °F 29.88 in SW 19.0 mph 28.0 mph 84 % 0.00 in 0 W/m2
21:05 50.5 °F 45.9 °F 29.88 in SW 15.0 mph 23.0 mph 84 % 0.00 in 0 W/m2
21:10 50.5 °F 45.9 °F 29.88 in SW 16.0 mph 29.0 mph 84 % 0.00 in 0 W/m2
21:15 50.7 °F 45.7 °F 29.88 in SW 18.0 mph 25.0 mph 83 % 0.00 in 0 W/m2
21:20 50.7 °F 45.7 °F 29.87 in SW 17.0 mph 28.0 mph 83 % 0.00 in 0 W/m2
21:25 50.7 °F 45.7 °F 29.86 in SSW 15.0 mph 23.0 mph 83 % 0.00 in 0 W/m2
21:30 50.7 °F 45.7 °F 29.86 in SSW 17.0 mph 27.0 mph 83 % 0.00 in 0 W/m2
21:35 50.7 °F 45.7 °F 29.86 in SW 20.0 mph 30.0 mph 83 % 0.00 in 0 W/m2
21:40 50.9 °F 45.9 °F 29.86 in SW 16.0 mph 27.0 mph 83 % 0.00 in 0 W/m2
21:45 50.7 °F 46.1 °F 29.85 in SSW 14.0 mph 26.0 mph 84 % 0.00 in 0 W/m2
21:50 50.7 °F 46.1 °F 29.84 in SSW 18.0 mph 27.0 mph 84 % 0.00 in 0 W/m2
21:55 50.7 °F 46.1 °F 29.84 in SSW 17.0 mph 28.0 mph 84 % 0.00 in 0 W/m2
22:00 51.1 °F 46.4 °F 29.84 in SSW 15.0 mph 23.0 mph 84 % 0.00 in 0 W/m2
22:05 51.1 °F 46.4 °F 29.83 in SW 19.0 mph 30.0 mph 84 % 0.00 in 0 W/m2
22:10 51.1 °F 46.1 °F 29.83 in SSW 17.0 mph 29.0 mph 83 % 0.00 in 0 W/m2
22:15 51.1 °F 46.4 °F 29.83 in SW 21.0 mph 30.0 mph 84 % 0.00 in 0 W/m2
22:20 51.1 °F 46.1 °F 29.82 in SW 16.0 mph 27.0 mph 83 % 0.00 in 0 W/m2
22:25 51.1 °F 46.1 °F 29.82 in SW 21.0 mph 36.0 mph 83 % 0.00 in 0 W/m2
22:30 51.3 °F 46.3 °F 29.82 in SSW 17.0 mph 26.0 mph 83 % 0.00 in 0 W/m2
22:35 51.1 °F 46.1 °F 29.81 in SSW 20.0 mph 33.0 mph 83 % 0.00 in 0 W/m2
22:40 51.1 °F 46.4 °F 29.82 in SSW 20.0 mph 30.0 mph 84 % 0.00 in 0 W/m2
22:45 51.1 °F 46.4 °F 29.80 in SSW 20.0 mph 28.0 mph 84 % 0.00 in 0 W/m2
22:50 51.1 °F 46.4 °F 29.80 in SW 19.0 mph 28.0 mph 84 % 0.00 in 0 W/m2
22:55 51.1 °F 46.4 °F 29.80 in SW 22.0 mph 33.0 mph 84 % 0.00 in 0 W/m2
23:00 51.1 °F 46.7 °F 29.80 in SSW 20.0 mph 33.0 mph 85 % 0.00 in 0 W/m2
23:05 51.1 °F 46.4 °F 29.80 in SW 17.0 mph 23.0 mph 84 % 0.00 in 0 W/m2
23:10 51.3 °F 46.9 °F 29.80 in SW 20.0 mph 30.0 mph 85 % 0.00 in 0 W/m2
23:15 51.4 °F 47.1 °F 29.79 in SSW 20.0 mph 30.0 mph 85 % 0.00 in 0 W/m2
23:20 51.4 °F 46.8 °F 29.79 in SSW 18.0 mph 28.0 mph 84 % 0.00 in 0 W/m2
23:25 51.4 °F 46.8 °F 29.78 in SSW 19.0 mph 34.0 mph 84 % 0.00 in 0 W/m2
23:30 51.6 °F 46.9 °F 29.78 in SW 17.0 mph 25.0 mph 84 % 0.00 in 0 W/m2
23:35 51.6 °F 46.9 °F 29.78 in SW 17.0 mph 25.0 mph 84 % 0.00 in 0 W/m2
23:40 51.6 °F 46.9 °F 29.78 in SW 16.0 mph 26.0 mph 84 % 0.00 in 0 W/m2
23:45 51.8 °F 47.1 °F 29.77 in SSW 16.0 mph 23.0 mph 84 % 0.00 in 0 W/m2
23:50 52.0 °F 47.3 °F 29.77 in SSW 18.0 mph 30.0 mph 84 % 0.00 in 0 W/m2
23:55 52.0 °F 47.3 °F 29.77 in SSW 18.0 mph 26.0 mph 84 % 0.00 in 0 W/m2
Delerius-Weather
Compliments of Weather Underground - 2.25 mb

Data updates at regular intervals.